Kezdőlap
METAR-TAF:

METAR-TAF

Repülőterek :

Shearwater, Új-Skócia, Kanada

földrajzi szélesség: 44-38N, földrajzi hosszúság: 063-30W, magasság: 51 m

Jelenlegi meteorológiai megfigyelések

A jelentés 12 órával és 47 perccel ezelõtt készült, 09:42 UTC
Északi szél 7 kt
Hőmérséklet 4°C
Páratartalom 93%
Légköri nyomás 1021 hPa
Látótávolság: 24.1 km
Szakadozott felhőzet 1300 lábon

METAR: CYAW 180942Z 35007KT 15SM BKN013 04/03 A3014 RMK SC7 DENSITY ALT -1330FT SLP207

Idő: 19:29 (22:29 UTC)


TAF: hiányzik

Meteorológiai megfigyelések és előrejelzések több, mint 4000 repülőtéren (METAR és TAF jelentéseket).

A térképen piros és sárga pontok jelzik az elérhető meteorológiai állomásokat.

Mozgassa az egeret a pont fölött, hogy megjelenjen az állomás neve.

Azután kattintson az időjárási megfigyelések és előrejelzések megtekintéséhez.

A térkép megváltoztatása: kattintson a fekete keresztel jelölt zöld gombra ráközelítéshez, a vonallal jelölt zöld gombra távolításhoz, vagy a zöld nyilakra a szomszédos térképek eléréséhez.


METAR-TAF: